Time;durP1;ratioP1;P1;durP2;ratioP2;P2;SDS_P1;SDS_P2;PMS_P1;PMS_P2;Temp;Humidity;BMP_temperature;BMP_pressure;BME280_temperature;BME280_humidity;BME280_pressure;Samples;Min_cycle;Max_cycle;Signal;HPM_P1;HPM_P2
2022/10/05 00:00:38;;;;;;;;;4.00;3.75;;;;;16.44;63.88;101684.25;5098200;27;45443;-86
2022/10/05 00:03:09;;;;;;;;;4.00;4.00;;;;;16.40;63.80;101682.66;5097566;27;47380;-86
2022/10/05 00:05:34;;;;;;;;;5.00;4.00;;;;;16.35;63.68;101676.72;5097988;27;45476;-86
2022/10/05 00:08:08;;;;;;;;;5.50;3.75;;;;;16.30;64.07;101672.53;5101753;27;45369;-86
2022/10/05 00:10:34;;;;;;;;;4.50;4.25;;;;;16.24;64.28;101671.00;5101411;27;45567;-86
2022/10/05 00:12:59;;;;;;;;;4.50;4.50;;;;;16.22;64.55;101672.84;5119773;27;46253;-86
2022/10/05 00:15:25;;;;;;;;;4.00;4.00;;;;;16.20;65.03;101667.63;5101421;27;45485;-86
2022/10/05 00:17:50;;;;;;;;;4.50;4.25;;;;;16.19;64.34;101660.66;5101160;27;45315;-86
2022/10/05 00:20:25;;;;;;;;;8.75;6.00;;;;;16.18;64.60;101666.84;5084191;27;45254;-86
2022/10/05 00:23:00;;;;;;;;;3.25;3.25;;;;;16.19;64.62;101663.28;5101253;27;45419;-87
2022/10/05 00:25:25;;;;;;;;;4.50;4.25;;;;;16.21;65.09;101664.13;5101110;27;45889;-86
2022/10/05 00:27:59;;;;;;;;;4.00;4.00;;;;;16.26;64.81;101664.78;5084430;27;45314;-86
2022/10/05 00:30:29;;;;;;;;;6.50;5.00;;;;;16.32;64.88;101658.44;5119832;27;45463;-86
2022/10/05 00:32:54;;;;;;;;;7.50;4.50;;;;;16.35;65.12;101647.81;5103127;27;46105;-87
2022/10/05 00:35:20;;;;;;;;;5.75;5.75;;;;;16.38;65.19;101650.31;5140354;27;45555;-86
2022/10/05 00:37:48;;;;;;;;;8.25;6.25;;;;;16.44;65.36;101641.34;5140562;27;45425;-86
2022/10/05 00:40:16;;;;;;;;;5.00;4.00;;;;;16.48;64.91;101642.94;5104401;27;45514;-87
2022/10/05 00:42:48;;;;;;;;;6.50;5.00;;;;;16.54;64.79;101644.47;5140281;27;46201;-87
2022/10/05 00:45:26;;;;;;;;;6.50;4.25;;;;;16.56;65.03;101650.50;5104035;27;45812;-86
2022/10/05 00:48:16;;;;;;;;;5.50;5.00;;;;;16.59;65.27;101650.41;5121948;27;45242;-86
2022/10/05 00:50:50;;;;;;;;;5.75;5.00;;;;;16.61;65.09;101638.91;5140279;27;45366;-87
2022/10/05 00:53:38;;;;;;;;;7.00;5.00;;;;;16.64;65.47;101649.31;5121231;27;47073;-87
2022/10/05 00:56:31;;;;;;;;;4.75;4.00;;;;;16.67;65.41;101642.22;5140022;27;45770;-86
2022/10/05 00:59:35;;;;;;;;;10.00;6.50;;;;;16.69;65.28;101643.84;5139992;27;45418;-86
2022/10/05 01:02:22;;;;;;;;;4.50;3.75;;;;;16.72;65.03;101645.50;5018618;28;45431;-87
2022/10/05 01:04:54;;;;;;;;;9.00;6.00;;;;;16.75;65.34;101645.38;5035028;28;46467;-87
2022/10/05 01:07:38;;;;;;;;;5.50;5.00;;;;;16.75;64.88;101645.38;5018763;28;45317;-86
2022/10/05 01:10:12;;;;;;;;;6.25;5.00;;;;;16.72;64.86;101646.38;5019375;28;45384;-86
2022/10/05 01:12:50;;;;;;;;;6.00;6.00;;;;;16.73;65.15;101641.94;5018802;28;45446;-87
2022/10/05 01:15:24;;;;;;;;;6.00;4.50;;;;;16.77;65.51;101646.16;5034787;28;45496;-86
2022/10/05 01:18:03;;;;;;;;;5.25;5.00;;;;;16.77;65.20;101647.03;5001799;28;45700;-87
2022/10/05 01:20:56;;;;;;;;;6.75;6.00;;;;;16.78;65.42;101640.00;5018224;28;45432;-86
2022/10/05 01:23:46;;;;;;;;;5.50;4.75;;;;;16.81;65.61;101645.16;5035037;28;45513;-86
2022/10/05 01:26:34;;;;;;;;;7.00;6.00;;;;;16.79;65.19;101633.81;5035077;28;45491;-86
2022/10/05 01:29:18;;;;;;;;;7.25;7.25;;;;;16.79;65.30;101632.06;5018091;28;45429;-86
2022/10/05 01:32:10;;;;;;;;;6.00;5.75;;;;;16.80;65.13;101630.28;5035168;28;45330;-86
2022/10/05 01:34:57;;;;;;;;;11.25;8.25;;;;;16.83;65.44;101638.94;5034961;28;45346;-86
2022/10/05 01:37:25;;;;;;;;;6.00;6.00;;;;;16.86;65.58;101629.19;5054204;27;47994;-87
2022/10/05 01:40:21;;;;;;;;;8.25;8.00;;;;;16.85;65.49;101616.97;5118468;27;45395;-86
2022/10/05 01:42:57;;;;;;;;;12.75;10.50;;;;;16.82;65.23;101613.53;5118644;27;45434;-86
2022/10/05 01:45:26;;;;;;;;;10.00;8.00;;;;;16.85;65.34;101614.34;5118114;27;45486;-87
2022/10/05 01:48:01;;;;;;;;;7.50;6.00;;;;;16.88;65.52;101612.44;5099898;27;45597;-86
2022/10/05 01:50:27;;;;;;;;;9.00;7.75;;;;;16.90;65.17;101615.00;5100421;27;45274;-86
2022/10/05 01:53:01;;;;;;;;;6.25;6.00;;;;;16.91;65.36;101606.19;5118438;27;45302;-87
2022/10/05 01:55:39;;;;;;;;;5.75;5.00;;;;;16.92;65.10;101603.50;5082902;27;45348;-87
2022/10/05 01:58:25;;;;;;;;;8.25;5.00;;;;;16.90;65.28;101601.84;5117854;27;45696;-87
2022/10/05 02:00:57;;;;;;;;;7.00;7.00;;;;;16.89;65.32;101595.75;5118151;27;45453;-86
2022/10/05 02:03:27;;;;;;;;;7.50;6.00;;;;;16.90;65.32;101597.47;5118208;27;45251;-87
2022/10/05 02:06:00;;;;;;;;;5.50;5.00;;;;;16.92;65.46;101595.63;5099904;27;45419;-87
2022/10/05 02:08:47;;;;;;;;;5.00;5.00;;;;;16.92;64.94;101600.00;5099631;27;45546;-86
2022/10/05 02:11:16;;;;;;;;;8.75;4.75;;;;;16.92;64.94;101587.72;5117938;27;45710;-87
2022/10/05 02:13:46;;;;;;;;;6.00;4.25;;;;;16.95;65.42;101594.63;5117797;27;45375;-86
2022/10/05 02:16:27;;;;;;;;;5.25;4.75;;;;;16.96;65.08;101586.69;5099685;27;45594;-86
2022/10/05 02:19:04;;;;;;;;;5.50;4.75;;;;;16.97;64.66;101585.75;5099760;27;45445;-86
2022/10/05 02:21:30;;;;;;;;;6.00;4.00;;;;;16.96;64.63;101589.31;5113551;27;45332;-86
2022/10/05 02:23:59;;;;;;;;;7.75;4.00;;;;;16.98;64.80;101586.63;5103025;27;45516;-86
2022/10/05 02:26:25;;;;;;;;;4.25;3.00;;;;;16.96;64.43;101581.41;5120020;27;45563;-86
2022/10/05 02:28:59;;;;;;;;;2.00;2.00;;;;;16.96;64.64;101577.94;5118697;27;46448;-88
2022/10/05 02:31:28;;;;;;;;;5.50;3.00;;;;;16.96;64.32;101575.31;5119885;27;46133;-86
2022/10/05 02:34:25;;;;;;;;;4.50;3.25;;;;;16.98;64.28;101576.94;5109100;27;45244;-86
2022/10/05 02:37:01;;;;;;;;;2.50;1.50;;;;;17.03;64.40;101574.09;5099375;27;45556;-86
2022/10/05 02:39:49;;;;;;;;;3.75;3.75;;;;;17.05;64.50;101563.53;5099102;27;45488;-86
2022/10/05 02:42:23;;;;;;;;;3.25;3.00;;;;;17.03;63.72;101560.94;5115349;27;45799;-86
2022/10/05 02:45:24;;;;;;;;;3.00;2.75;;;;;17.03;63.95;101563.59;5099308;27;45392;-86
2022/10/05 02:47:57;;;;;;;;;0.00;0.00;;;;;17.04;64.14;101557.41;5117591;27;45481;-86
2022/10/05 02:50:32;;;;;;;;;3.50;2.75;;;;;17.06;63.63;101558.22;5117268;27;46383;-86
2022/10/05 02:53:13;;;;;;;;;2.75;2.75;;;;;17.07;63.80;101566.94;5081928;27;45665;-85
2022/10/05 02:55:51;;;;;;;;;2.25;2.25;;;;;17.03;63.53;101561.84;5099230;27;45609;-86
2022/10/05 02:58:50;;;;;;;;;2.75;2.00;;;;;17.07;63.74;101564.31;5098615;27;45303;-86
2022/10/05 03:01:31;;;;;;;;;2.00;2.00;;;;;17.09;63.61;101552.81;5111790;27;47335;-86
2022/10/05 03:04:19;;;;;;;;;4.00;3.00;;;;;17.09;63.76;101558.09;5098742;27;46060;-87
2022/10/05 03:06:56;;;;;;;;;4.25;2.00;;;;;17.09;63.77;101560.72;5099027;27;45231;-86
2022/10/05 03:09:24;;;;;;;;;2.00;2.00;;;;;17.08;63.66;101545.84;5117248;27;45501;-86
2022/10/05 03:12:21;;;;;;;;;4.00;3.00;;;;;17.10;63.48;101553.66;5098477;27;46434;-87
2022/10/05 03:15:07;;;;;;;;;1.75;1.75;;;;;17.06;63.64;101538.94;5117179;27;45689;-86
2022/10/05 03:17:39;;;;;;;;;1.00;1.00;;;;;17.02;63.51;101543.47;5117204;27;45282;-87
2022/10/05 03:20:25;;;;;;;;;2.50;2.50;;;;;16.99;63.66;101541.84;5100652;27;45366;-86
2022/10/05 03:23:00;;;;;;;;;3.00;3.00;;;;;16.94;63.58;101538.56;5119029;27;46541;-86
2022/10/05 03:25:51;;;;;;;;;2.25;2.25;;;;;16.90;63.98;101539.63;5118858;27;45748;-87
2022/10/05 03:28:22;;;;;;;;;3.00;3.00;;;;;16.89;63.87;101530.00;5119383;27;45385;-86
2022/10/05 03:31:13;;;;;;;;;2.00;2.00;;;;;16.89;63.86;101529.16;5119194;27;45314;-87
2022/10/05 03:33:46;;;;;;;;;3.00;2.00;;;;;16.86;64.16;101530.13;5100333;27;45571;-87
2022/10/05 03:36:16;;;;;;;;;3.75;2.00;;;;;16.83;63.81;101533.75;5098462;27;45403;-85
2022/10/05 03:39:14;;;;;;;;;2.00;2.00;;;;;16.77;63.93;101525.22;5098506;27;45332;-86
2022/10/05 03:41:47;;;;;;;;;2.00;2.00;;;;;16.73;64.38;101527.13;5100028;27;45468;-86
2022/10/05 03:44:27;;;;;;;;;3.00;2.75;;;;;16.69;63.83;101527.34;5120279;27;46200;-86
2022/10/05 03:46:59;;;;;;;;;2.50;2.00;;;;;16.67;64.30;101522.13;5120323;27;45504;-86
2022/10/05 03:49:51;;;;;;;;;2.00;1.00;;;;;16.61;64.47;101523.25;5120489;27;45382;-86
2022/10/05 03:52:37;;;;;;;;;1.00;1.00;;;;;16.56;64.42;101522.56;5102001;27;45267;-86
2022/10/05 03:55:29;;;;;;;;;2.00;2.00;;;;;16.52;64.40;101523.63;5101604;27;45630;-86
2022/10/05 03:57:57;;;;;;;;;3.00;1.75;;;;;16.49;64.76;101513.22;5036459;28;45401;-87
2022/10/05 04:00:22;;;;;;;;;5.75;3.50;;;;;16.45;64.73;101520.41;5036406;28;45413;-86
2022/10/05 04:03:09;;;;;;;;;2.00;1.00;;;;;16.43;64.51;101516.13;5036469;28;45425;-86
2022/10/05 04:05:40;;;;;;;;;3.00;2.00;;;;;16.38;65.01;101521.59;5019824;28;47756;-87
2022/10/05 04:08:27;;;;;;;;;1.75;1.00;;;;;16.34;64.80;101530.47;5020042;28;45260;-87
2022/10/05 04:10:55;;;;;;;;;2.00;2.00;;;;;16.30;64.68;101526.28;5019728;28;45381;-86
2022/10/05 04:13:33;;;;;;;;;2.75;2.00;;;;;16.25;65.01;101529.09;5036304;28;45472;-87
2022/10/05 04:16:21;;;;;;;;;3.50;3.50;;;;;16.21;65.20;101519.63;5036204;28;45403;-86
2022/10/05 04:18:56;;;;;;;;;4.00;4.00;;;;;16.14;64.81;101520.78;5036001;28;45787;-85
2022/10/05 04:21:38;;;;;;;;;6.25;2.75;;;;;16.09;65.28;101516.66;5048705;28;45427;-86
2022/10/05 04:24:14;;;;;;;;;3.50;3.00;;;;;16.00;65.38;101523.94;5055770;28;45371;-86
2022/10/05 04:26:50;;;;;;;;;6.00;3.00;;;;;15.96;65.47;101524.16;5056336;28;45419;-86
2022/10/05 04:29:33;;;;;;;;;4.50;4.50;;;;;15.91;65.56;101513.81;5056236;28;45359;-86
2022/10/05 04:32:23;;;;;;;;;3.25;3.25;;;;;15.87;65.82;101520.94;5056197;28;45411;-86
2022/10/05 04:35:04;;;;;;;;;5.00;4.00;;;;;15.85;65.43;101514.91;5085042;27;45185;-86
2022/10/05 04:37:29;;;;;;;;;6.25;4.00;;;;;15.83;66.23;101518.50;5119263;27;46648;-86
2022/10/05 04:40:08;;;;;;;;;4.25;4.00;;;;;15.79;65.75;101516.94;5119490;27;45496;-86
2022/10/05 04:42:46;;;;;;;;;2.50;2.00;;;;;15.76;66.43;101514.41;5084104;27;45288;-86
2022/10/05 04:45:27;;;;;;;;;5.75;4.50;;;;;15.71;66.30;101511.06;5101276;27;45534;-86
2022/10/05 04:48:14;;;;;;;;;4.75;4.00;;;;;15.67;66.31;101508.56;5119420;27;46643;-86
2022/10/05 04:51:15;;;;;;;;;7.00;3.25;;;;;15.64;66.45;101503.44;5101062;27;45287;-86
2022/10/05 04:54:04;;;;;;;;;3.00;3.00;;;;;15.62;66.64;101505.25;5083223;27;45321;-86
2022/10/05 04:56:36;;;;;;;;;3.00;3.00;;;;;15.60;66.28;101506.22;5101190;27;45585;-86
2022/10/05 04:59:20;;;;;;;;;4.00;3.00;;;;;15.56;66.43;101497.59;5100900;27;46332;-86
2022/10/05 05:02:05;;;;;;;;;4.50;3.00;;;;;15.54;66.48;101499.44;5119319;27;45351;-86
2022/10/05 05:04:48;;;;;;;;;4.50;2.50;;;;;15.53;66.61;101495.13;5119279;27;45306;-86
2022/10/05 05:07:40;;;;;;;;;4.50;2.75;;;;;15.51;66.82;101489.06;5100385;27;45636;-86
2022/10/05 05:10:26;;;;;;;;;3.00;3.00;;;;;15.48;67.28;101482.16;5100668;27;46236;-86
2022/10/05 05:13:04;;;;;;;;;2.00;2.00;;;;;15.46;67.21;101491.00;5118810;27;45493;-85
2022/10/05 05:15:39;;;;;;;;;4.00;2.00;;;;;15.42;67.31;101490.25;5119197;27;45366;-86
2022/10/05 05:18:04;;;;;;;;;3.00;3.00;;;;;15.40;67.29;101499.97;5100575;27;45509;-88
2022/10/05 05:20:32;;;;;;;;;2.50;2.50;;;;;15.37;67.10;101489.56;5118576;27;45347;-88
2022/10/05 05:23:12;;;;;;;;;2.75;2.75;;;;;15.37;67.21;101488.72;5118495;27;45401;-86
2022/10/05 05:25:59;;;;;;;;;4.50;4.25;;;;;15.34;67.52;101488.81;5119092;27;45590;-86
2022/10/05 05:28:51;;;;;;;;;3.75;2.00;;;;;15.30;67.36;101485.44;5100390;27;45469;-86
2022/10/05 05:31:29;;;;;;;;;3.00;3.00;;;;;15.29;68.09;101481.13;5100237;27;46807;-86
2022/10/05 05:34:31;;;;;;;;;2.00;2.00;;;;;15.27;67.76;101478.56;5100094;27;45847;-86
2022/10/05 05:37:06;;;;;;;;;2.00;2.00;;;;;15.26;67.68;101471.59;5118397;27;45495;-85
2022/10/05 05:39:41;;;;;;;;;4.00;4.00;;;;;15.24;67.97;101467.34;5118623;27;45351;-86
2022/10/05 05:42:17;;;;;;;;;3.00;3.00;;;;;15.23;68.20;101473.47;5100127;27;45514;-86
2022/10/05 05:44:49;;;;;;;;;4.00;3.75;;;;;15.22;67.53;101467.38;5100120;27;45420;-86
2022/10/05 05:47:34;;;;;;;;;7.00;3.00;;;;;15.22;68.39;101470.00;5118666;27;45293;-86
2022/10/05 05:50:21;;;;;;;;;2.25;2.25;;;;;15.22;67.71;101477.03;5118104;27;45589;-85
2022/10/05 05:52:52;;;;;;;;;4.00;3.00;;;;;15.20;68.13;101484.09;5118108;27;45661;-86
2022/10/05 05:55:34;;;;;;;;;9.00;3.00;;;;;15.18;67.46;101472.81;5099929;27;45791;-86
2022/10/05 05:58:10;;;;;;;;;4.75;3.00;;;;;15.15;68.28;101471.13;5099942;27;45551;-86
2022/10/05 06:00:41;;;;;;;;;3.00;3.00;;;;;15.12;67.94;101479.13;5099935;27;45346;-85
2022/10/05 06:03:29;;;;;;;;;2.25;2.25;;;;;15.10;68.25;101483.59;5099275;27;47155;-86
2022/10/05 06:05:58;;;;;;;;;5.00;3.00;;;;;15.12;67.84;101487.00;5117614;27;45542;-85
2022/10/05 06:08:46;;;;;;;;;2.75;0.75;;;;;15.09;68.14;101481.84;5099927;27;45259;-85
2022/10/05 06:11:28;;;;;;;;;4.00;3.25;;;;;15.08;68.33;101481.00;5099672;27;45476;-85
2022/10/05 06:13:55;;;;;;;;;7.00;3.50;;;;;15.06;68.65;101479.34;5117793;27;46302;-86
2022/10/05 06:16:27;;;;;;;;;2.00;2.00;;;;;15.05;68.43;101478.47;5099630;27;45307;-86
2022/10/05 06:19:04;;;;;;;;;3.25;2.00;;;;;15.07;68.39;101471.41;5099895;27;45308;-85
2022/10/05 06:21:57;;;;;;;;;4.50;3.50;;;;;15.09;68.33;101482.69;5113705;27;45527;-86
2022/10/05 06:24:28;;;;;;;;;4.50;3.50;;;;;15.09;68.21;101479.22;5138366;27;45389;-85
2022/10/05 06:27:33;;;;;;;;;2.75;2.75;;;;;15.07;68.36;101487.16;5102883;27;45823;-85
2022/10/05 06:30:14;;;;;;;;;4.50;3.50;;;;;15.07;68.62;101476.66;5100994;27;45489;-85
2022/10/05 06:32:49;;;;;;;;;3.75;2.25;;;;;15.05;68.42;101483.72;5102670;27;45288;-85
2022/10/05 06:35:26;;;;;;;;;3.50;3.00;;;;;15.04;68.16;101481.16;5117232;27;46449;-85
2022/10/05 06:38:00;;;;;;;;;4.00;3.00;;;;;15.06;68.48;101480.22;5117648;27;45388;-85
2022/10/05 06:40:37;;;;;;;;;4.00;3.00;;;;;15.09;68.47;101480.06;5117744;27;45429;-85
2022/10/05 06:43:35;;;;;;;;;4.00;4.00;;;;;15.09;68.36;101482.69;5099353;27;45518;-85
2022/10/05 06:46:12;;;;;;;;;5.75;5.25;;;;;15.14;68.25;101486.94;5117544;27;46707;-87
2022/10/05 06:48:44;;;;;;;;;4.00;4.00;;;;;15.19;68.23;101490.25;5099702;27;45323;-88
2022/10/05 06:51:46;;;;;;;;;6.25;3.00;;;;;15.19;68.32;101487.63;5099284;27;45357;-89
2022/10/05 06:54:28;;;;;;;;;4.50;3.00;;;;;15.21;68.04;101480.53;5088879;27;45580;-86
2022/10/05 06:57:01;;;;;;;;;4.50;4.00;;;;;15.23;68.27;101482.22;5099228;27;46593;-88
2022/10/05 07:00:07;;;;;;;;;3.50;3.25;;;;;15.23;68.03;101479.59;5098978;27;45390;-87
2022/10/05 07:03:00;;;;;;;;;4.00;4.00;;;;;15.23;67.68;101479.59;5099221;27;45358;-87
2022/10/05 07:05:46;;;;;;;;;5.50;3.00;;;;;15.26;67.99;101479.47;5117229;27;45495;-85
2022/10/05 07:08:29;;;;;;;;;4.75;4.25;;;;;15.26;68.12;101483.88;5098626;27;48332;-85
2022/10/05 07:11:02;;;;;;;;;7.25;3.50;;;;;15.28;68.24;101490.78;5098752;27;45334;-86
2022/10/05 07:13:51;;;;;;;;;3.25;3.25;;;;;15.26;68.18;101482.09;5098599;27;45485;-85
2022/10/05 07:16:25;;;;;;;;;2.75;2.75;;;;;15.32;68.05;101490.66;5098442;27;45319;-85
2022/10/05 07:19:15;;;;;;;;;5.50;3.75;;;;;15.36;68.42;101497.50;5116566;27;45588;-85
2022/10/05 07:21:52;;;;;;;;;3.25;3.25;;;;;15.40;68.28;101493.88;5116855;27;45775;-88
2022/10/05 07:24:40;;;;;;;;;6.75;4.50;;;;;15.44;68.63;101500.69;5117033;27;45477;-87
2022/10/05 07:27:15;;;;;;;;;2.75;2.75;;;;;15.41;68.70;101504.28;5098649;27;45455;-85
2022/10/05 07:30:03;;;;;;;;;6.50;3.75;;;;;15.41;68.45;101500.81;5116921;27;46286;-85
2022/10/05 07:32:58;;;;;;;;;4.25;4.00;;;;;15.46;68.44;101509.38;5098210;27;45639;-87
2022/10/05 07:38:42;;;;;;;;;4.75;4.75;;;;;15.56;68.22;101513.34;5101668;27;45284;-86
2022/10/05 07:41:14;;;;;;;;;3.00;3.00;;;;;15.59;68.13;101510.63;5098324;27;47402;-87
2022/10/05 07:43:47;;;;;;;;;4.75;4.75;;;;;15.64;68.08;101513.94;5098491;27;45552;-86
2022/10/05 07:46:19;;;;;;;;;4.00;3.00;;;;;15.65;68.42;101523.50;5098329;27;45247;-86
2022/10/05 07:48:54;;;;;;;;;5.75;4.00;;;;;15.64;68.50;101529.69;5116642;27;45477;-87
2022/10/05 07:51:25;;;;;;;;;4.00;4.00;;;;;15.70;68.37;101525.13;5098197;27;47408;-86
2022/10/05 07:54:20;;;;;;;;;5.75;4.25;;;;;15.73;67.84;101527.59;5098405;27;45403;-87
2022/10/05 07:56:52;;;;;;;;;7.00;4.00;;;;;15.81;68.12;101525.59;5091376;27;45224;-87
2022/10/05 07:59:31;;;;;;;;;4.75;3.00;;;;;15.94;67.58;101521.56;5098239;27;45363;-86
2022/10/05 08:02:11;;;;;;;;;2.25;2.25;;;;;16.04;67.43;101530.78;5080524;27;47417;-85
2022/10/05 08:04:59;;;;;;;;;5.00;3.50;;;;;16.16;67.73;101536.50;5081061;27;46102;-85
2022/10/05 08:07:24;;;;;;;;;3.75;3.75;;;;;16.28;67.10;101540.41;5098114;27;45467;-85
2022/10/05 08:09:56;;;;;;;;;5.00;2.00;;;;;16.35;66.93;101534.00;5098378;27;45311;-85
2022/10/05 08:12:33;;;;;;;;;3.00;3.00;;;;;16.41;66.61;101536.34;5097947;27;46234;-85
2022/10/05 08:15:15;;;;;;;;;4.50;3.00;;;;;16.42;66.49;101536.28;5080908;27;45879;-86
2022/10/05 08:18:08;;;;;;;;;3.00;3.00;;;;;16.51;66.71;101542.09;5098619;27;45359;-86
2022/10/05 08:20:48;;;;;;;;;3.00;2.00;;;;;16.62;66.09;101531.97;5097704;27;45525;-88
2022/10/05 08:23:22;;;;;;;;;4.00;4.00;;;;;16.74;66.31;101528.00;5118295;27;46467;-89
2022/10/05 08:26:21;;;;;;;;;2.50;2.00;;;;;16.90;65.98;101530.84;5116538;27;45633;-88
2022/10/05 08:29:31;;;;;;;;;7.25;3.50;;;;;17.08;65.21;101532.69;5119728;27;45449;-88
2022/10/05 08:32:01;;;;;;;;;4.50;3.25;;;;;17.26;65.15;101522.28;5016214;28;45321;-87
2022/10/05 08:34:46;;;;;;;;;3.25;3.00;;;;;17.38;64.82;101533.13;5026080;28;46522;-88
2022/10/05 08:37:20;;;;;;;;;5.50;2.75;;;;;17.46;63.86;101526.63;5019411;28;45837;-86
2022/10/05 08:39:50;;;;;;;;;4.50;3.00;;;;;17.48;64.61;101533.56;5037276;28;45524;-86
2022/10/05 08:42:43;;;;;;;;;6.75;3.25;;;;;17.54;63.93;101540.31;5019060;28;45546;-86
2022/10/05 08:45:40;;;;;;;;;3.75;3.00;;;;;17.66;64.36;101536.28;5035320;28;45502;-86
2022/10/05 08:48:39;;;;;;;;;6.50;2.75;;;;;17.84;63.91;101543.31;5026629;28;45842;-86
2022/10/05 08:51:19;;;;;;;;;3.50;3.50;;;;;17.90;63.24;101543.06;5035378;28;45424;-86
2022/10/05 08:54:22;;;;;;;;;3.00;3.00;;;;;17.89;62.88;101551.06;5035766;28;45456;-86
2022/10/05 08:56:56;;;;;;;;;6.25;3.25;;;;;17.88;63.22;101547.53;5018832;28;48230;-86
2022/10/05 08:59:43;;;;;;;;;3.00;3.00;;;;;17.91;62.87;101539.50;5035109;28;45739;-86
2022/10/05 09:02:08;;;;;;;;;4.00;4.00;;;;;17.98;62.84;101545.34;5018765;28;45374;-85
2022/10/05 09:04:53;;;;;;;;;3.25;3.25;;;;;18.11;62.56;101553.53;5018857;28;45332;-85
2022/10/05 09:07:41;;;;;;;;;3.00;3.00;;;;;18.24;62.50;101557.28;5036136;27;46273;-85
2022/10/05 09:10:38;;;;;;;;;5.00;3.00;;;;;18.30;62.12;101556.13;5100963;27;45579;-86
2022/10/05 09:13:13;;;;;;;;;4.00;3.00;;;;;18.33;61.44;101570.00;5118791;27;45300;-85
2022/10/05 09:16:07;;;;;;;;;3.50;3.50;;;;;18.29;61.66;101549.97;5100755;27;45576;-86
2022/10/05 09:18:54;;;;;;;;;6.00;3.00;;;;;18.30;61.02;101549.06;5100520;27;46421;-86
2022/10/05 09:21:29;;;;;;;;;3.00;3.00;;;;;18.35;60.63;101556.78;5118694;27;45640;-87
2022/10/05 09:24:13;;;;;;;;;5.00;3.75;;;;;18.41;60.33;101560.88;5118950;27;45495;-86
2022/10/05 09:26:58;;;;;;;;;4.00;3.25;;;;;18.47;60.64;101553.50;5119005;27;45320;-86
2022/10/05 09:29:45;;;;;;;;;4.25;3.25;;;;;18.53;59.92;101558.47;5099964;27;47012;-84
2022/10/05 09:32:39;;;;;;;;;3.50;3.00;;;;;18.54;59.86;101552.28;5118568;27;45338;-84
2022/10/05 09:35:21;;;;;;;;;3.25;3.00;;;;;18.67;59.89;101560.44;5118766;27;45407;-85
2022/10/05 09:38:25;;;;;;;;;4.00;3.50;;;;;18.70;58.80;101547.13;5100658;27;45520;-86
2022/10/05 09:41:09;;;;;;;;;1.00;1.00;;;;;18.71;58.80;101555.88;5107368;27;46278;-86
2022/10/05 09:43:49;;;;;;;;;4.00;3.00;;;;;18.66;58.23;101555.25;5118044;27;45370;-85
2022/10/05 09:46:53;;;;;;;;;2.75;2.75;;;;;18.64;57.53;101560.59;5117480;27;45403;-86
2022/10/05 09:49:37;;;;;;;;;5.00;3.00;;;;;18.60;58.39;101561.69;5118714;27;45291;-86
2022/10/05 09:52:24;;;;;;;;;4.00;1.75;;;;;18.60;58.28;101560.81;5118669;27;45492;-86
2022/10/05 09:55:01;;;;;;;;;4.00;2.00;;;;;18.60;57.96;101553.75;5118498;27;45466;-86
2022/10/05 09:57:49;;;;;;;;;2.75;2.75;;;;;18.66;57.91;101558.72;5118066;27;45390;-89
2022/10/05 10:00:46;;;;;;;;;4.50;3.00;;;;;18.68;57.13;101564.78;5118506;27;45446;-86
2022/10/05 10:03:49;;;;;;;;;4.00;3.00;;;;;18.67;57.68;101562.25;5014437;28;45342;-88
2022/10/05 10:06:20;;;;;;;;;4.00;3.00;;;;;18.67;57.67;101564.88;5014747;28;45659;-86
2022/10/05 10:08:53;;;;;;;;;3.00;2.25;;;;;18.70;57.41;101567.34;5014662;28;45507;-87
2022/10/05 10:11:19;;;;;;;;;4.25;3.00;;;;;18.76;56.85;101567.06;5014395;28;45525;-86
2022/10/05 10:14:05;;;;;;;;;3.00;3.00;;;;;18.80;56.64;101558.03;5014651;28;47056;-86
2022/10/05 10:17:07;;;;;;;;;5.75;2.75;;;;;18.87;56.80;101553.31;5014569;28;45842;-86
2022/10/05 10:19:36;;;;;;;;;3.00;1.75;;;;;18.95;56.38;101559.09;4997844;28;45327;-87
2022/10/05 10:22:09;;;;;;;;;3.25;3.25;;;;;18.92;56.38;101552.16;5032272;28;45435;-84
2022/10/05 10:24:53;;;;;;;;;3.00;2.75;;;;;18.87;56.31;101542.78;5017797;28;47298;-85
2022/10/05 10:27:58;;;;;;;;;2.00;2.00;;;;;18.81;55.85;101543.94;5033770;28;45943;-86
2022/10/05 10:30:51;;;;;;;;;3.00;2.00;;;;;18.75;56.43;101545.06;4974947;28;45319;-85
2022/10/05 10:33:34;;;;;;;;;2.00;2.00;;;;;18.76;56.23;101532.75;4974676;28;45324;-85
2022/10/05 10:36:10;;;;;;;;;4.50;3.00;;;;;18.93;57.05;101545.13;4973197;28;46514;-86
2022/10/05 10:38:59;;;;;;;;;2.00;2.00;;;;;18.98;56.04;101540.47;4958168;28;45491;-87
2022/10/05 10:41:34;;;;;;;;;4.00;1.75;;;;;19.01;56.01;101544.72;5009254;28;45590;-87
2022/10/05 10:44:24;;;;;;;;;2.00;2.00;;;;;19.09;55.82;101532.84;4997731;28;45336;-85
2022/10/05 10:47:23;;;;;;;;;2.00;2.00;;;;;19.22;55.99;101532.19;5013708;28;46450;-83
2022/10/05 10:49:57;;;;;;;;;2.00;2.00;;;;;19.37;55.00;101533.16;5012812;28;45732;-86
2022/10/05 10:52:44;;;;;;;;;2.00;2.00;;;;;19.57;55.47;101518.91;4980617;28;45410;-83
2022/10/05 10:55:33;;;;;;;;;4.75;1.75;;;;;19.72;54.15;101518.97;4998358;28;45606;-84
2022/10/05 10:58:38;;;;;;;;;1.75;0.75;;;;;19.84;54.81;101512.13;5013773;28;45507;-84
2022/10/05 11:01:15;;;;;;;;;3.50;1.00;;;;;20.16;53.61;101508.63;5013024;28;45785;-85
2022/10/05 11:04:04;;;;;;;;;1.50;0.00;;;;;20.39;53.05;101502.00;5013752;28;45403;-85
2022/10/05 11:06:44;;;;;;;;;2.50;1.75;;;;;20.57;54.08;101495.63;5007132;27;45349;-83
2022/10/05 11:09:35;;;;;;;;;3.00;1.25;;;;;20.92;52.26;101486.56;5119526;27;46391;-85
2022/10/05 11:12:16;;;;;;;;;2.25;1.00;;;;;21.23;52.19;101480.25;5129675;27;45191;-83
2022/10/05 11:14:51;;;;;;;;;1.00;1.00;;;;;22.82;52.00;101476.09;5108189;27;45335;-86
2022/10/05 11:17:39;;;;;;;;;2.75;2.75;;;;;24.93;46.69;101463.38;5118817;27;45438;-85
2022/10/05 11:20:40;;;;;;;;;1.25;1.25;;;;;27.22;42.00;101464.91;5101800;27;46437;-85
2022/10/05 11:23:37;;;;;;;;;1.00;1.00;;;;;28.59;41.55;101457.06;5098628;27;45749;-86
2022/10/05 11:26:28;;;;;;;;;1.00;0.50;;;;;29.96;36.32;101466.13;5114060;27;45471;-86
2022/10/05 11:29:18;;;;;;;;;1.25;1.25;;;;;31.01;35.82;101468.91;5137843;27;45291;-86
2022/10/05 11:32:15;;;;;;;;;2.00;1.75;;;;;32.36;34.54;101475.09;5134679;27;45423;-86
2022/10/05 11:34:59;;;;;;;;;4.00;1.00;;;;;33.38;29.94;101472.66;5109685;27;45595;-85
2022/10/05 11:37:48;;;;;;;;;1.00;1.00;;;;;33.94;28.36;101475.16;5133125;27;45529;-87
2022/10/05 11:40:16;;;;;;;;;1.25;1.25;;;;;34.01;26.74;101473.44;5116711;27;45560;-86
2022/10/05 11:43:18;;;;;;;;;2.00;1.00;;;;;34.00;29.86;101479.00;5134421;27;46586;-83
2022/10/05 11:45:53;;;;;;;;;2.50;2.00;;;;;34.42;28.72;101483.91;5098573;27;45604;-86
2022/10/05 11:48:31;;;;;;;;;1.25;1.25;;;;;34.81;25.25;101490.13;5116812;27;45497;-86
2022/10/05 11:51:16;;;;;;;;;0.00;0.00;;;;;35.05;25.26;101476.31;5099402;27;45351;-88
2022/10/05 11:53:48;;;;;;;;;0.25;0.25;;;;;35.44;26.76;101474.31;5097896;27;45693;-87
2022/10/05 11:56:24;;;;;;;;;1.00;1.00;;;;;35.61;24.94;101462.19;5116758;27;45893;-85
2022/10/05 11:58:59;;;;;;;;;2.00;2.00;;;;;35.45;26.56;101457.84;5102302;27;45426;-87
2022/10/05 12:01:43;;;;;;;;;1.00;1.00;;;;;35.69;25.73;101471.25;5116961;27;45497;-84
2022/10/05 12:04:19;;;;;;;;;1.25;0.25;;;;;35.74;25.81;101456.09;5140881;27;46653;-84
2022/10/05 12:07:01;;;;;;;;;1.50;0.00;;;;;36.20;24.78;101466.53;5120074;27;45434;-86
2022/10/05 12:10:12;;;;;;;;;1.00;1.00;;;;;36.53;24.58;101454.25;5121046;27;45475;-84
2022/10/05 12:12:34;;;;;;;;;2.25;2.00;;;;;36.60;24.50;101455.13;5140218;27;45470;-85
2022/10/05 12:15:17;;;;;;;;;0.00;0.00;;;;;36.83;24.00;101462.16;5120809;27;46265;-83
2022/10/05 12:17:54;;;;;;;;;1.00;1.00;;;;;36.93;22.94;101460.75;5107343;27;45374;-84
2022/10/05 12:20:42;;;;;;;;;0.75;0.75;;;;;36.35;24.71;101458.31;5089060;27;45502;-84
2022/10/05 12:23:42;;;;;;;;;0.00;0.00;;;;;35.81;24.70;101461.56;5104790;27;45687;-85
2022/10/05 12:26:13;;;;;;;;;0.25;0.00;;;;;34.55;25.71;101471.59;5055017;28;47315;-85
2022/10/05 12:28:50;;;;;;;;;2.00;1.00;;;;;33.73;26.06;101460.47;5055569;28;45441;-83
2022/10/05 12:31:28;;;;;;;;;0.00;0.00;;;;;32.60;28.67;101450.84;5056214;28;45437;-82